Portada
METAR-TAF:

METAR-TAF

Aeropuertos :

Bergerac, Francia

latitud: 44-49N, longitud: 000-31E, altitud: 51 m

Observación

El informe se hizo hace 11 minutos, a las 22:30 UTC
Viento 5 kt del oeste-suroeste
Temperatura 19°C
Humedad 73%
Presión 1019 hPa
Visibilidad 10 km o más
sin nubes por debajo de 1500 m y sin presencia de cumulonimbus.

METAR: LFBE 222230Z AUTO 25005KT CAVOK 19/14 Q1019

Hora: 00:41 (22:41 UTC)

Pronóstico

El informe se hizo hace 11 horas y 41 minutos, a las 11:00 UTC
Pronóstico válido del 22 a las 12 UTC al 23 a las 12 UTC
Viento 3 kt con dirección variable
Visibilidad 10 km o más
sin nubes por debajo de 1500 m y sin presencia de cumulonimbus.
Temporalmente
del 22 a las 14 UTC al 22 a las 19 UTC
Viento 10 kt del oeste

TAF: LFBE 221100Z 2212/2312 VRB03KT CAVOK TEMPO 2214/2219 27010KT

Observaciones y pronósticos meteorológicos de más de 4000 aeropuertos (mensajes METAR y TAF).

Los puntos amarillos y rojos representan las estaciones disponibles.

Ponga el ratón en el punto deseado para ver el nombre de la estación.

Haga clic para ver las observaciones y los pronósticos meteorológicos.

Para cambiar el mapa : haga clic en los botones verdes con una cruz de color negro para hacer un zoom, en el botón verde con un guión para alejar o en las flechas verdes para mapas adyacentes.


METAR-TAF: